Weather History for Hot Springs, VA

Change the Weather History Date:

Friday, October 25, 2013

  Actual Average Record
Temperature  
Mean Temperature 30 °F -  
Max Temperature 35 °F 55 °F 69 °F (2012)
Min Temperature 26 °F 40 °F 24 °F (1999)
Degree Days  
Heating Degree Days 34    
Moisture  
Dew Point 23 °F    
Average Humidity 78    
Maximum Humidity 93    
Minimum Humidity 56    
Precipitation  
Precipitation 0.00 in - - ()
Sea Level Pressure  
Sea Level Pressure 30.24 in    
Wind  
Wind Speed 11 mph (WNW)    
Max Wind Speed 18 mph    
Max Gust Speed 30 mph    
Visibility 10 miles    
Events      
Averages and records for this station are not official NWS values.
T = Trace of Precipitation, MM = Missing Value Source: NWS Daily Summary

Daily Weather History Graph

Daily Weather History Graph

Search for Another Location

Airport:

Trip Planner

Search our weather history database for the weather conditions in past years. The results will help you decide how hot, cold, wet, or windy it might be!

Date:

Astronomy

Oct. 25, 2013 Rise Set
Actual Time 7:37 AM EDT 6:28 PM EDT
Civil Twilight 7:11 AM EDT 6:55 PM EDT
Nautical Twilight 6:40 AM EDT 7:25 PM EDT
Astronomical Twilight 6:09 AM EDT 7:56 PM EDT
Moon 11:47 PM EDT (10/25) 1:15 PM EDT (10/25)
Length of Visible Light 11h 44m
Length of Day
10h 50m
Waning Gibbous, 62% of the Moon is Illuminated
Oct 25
Waning Gibbous
Oct 26
Last Quarter
Nov 3
New
Nov 10
First Quarter
Nov 17
Full

Hourly Weather History & Observations

Time (EDT) Temp. Windchill Dew Point Humidity Pressure Visibility Wind Dir Wind Speed Gust Speed Precip Events Conditions
12:15 AM 26.6 °F 18.2 °F 24.8 °F 93% 30.11 in 10.0 mi West 8.1 mph - N/A   Clear
12:35 AM 26.6 °F 16.2 °F 24.8 °F 93% 30.11 in 10.0 mi West 11.5 mph 17.3 mph N/A   Scattered Clouds
12:55 AM 26.6 °F 16.8 °F 24.8 °F 93% 30.11 in 10.0 mi West 10.4 mph - N/A   Mostly Cloudy
1:15 AM 26.6 °F 16.2 °F 24.8 °F 93% 30.12 in 10.0 mi WNW 11.5 mph - N/A   Mostly Cloudy
1:35 AM 26.6 °F 16.2 °F 24.8 °F 93% 30.12 in 10.0 mi West 11.5 mph - N/A   Overcast
1:55 AM 26.6 °F 15.7 °F 24.8 °F 93% 30.13 in 10.0 mi West 12.7 mph 17.3 mph N/A   Overcast
2:15 AM 26.6 °F 17.5 °F 24.8 °F 93% 30.13 in 10.0 mi West 9.2 mph 18.4 mph N/A   Mostly Cloudy
2:35 AM 26.6 °F 16.2 °F 24.8 °F 93% 30.13 in 10.0 mi West 11.5 mph - N/A   Mostly Cloudy
2:55 AM 26.6 °F 15.2 °F 24.8 °F 93% 30.13 in 10.0 mi West 13.8 mph - N/A   Overcast
3:15 AM 26.6 °F 15.7 °F 24.8 °F 93% 30.14 in 10.0 mi West 12.7 mph - N/A   Mostly Cloudy
3:35 AM 26.6 °F 15.2 °F 24.8 °F 93% 30.14 in 10.0 mi West 13.8 mph - N/A   Overcast
3:55 AM 26.6 °F 15.7 °F 24.8 °F 93% 30.14 in 10.0 mi WNW 12.7 mph - N/A   Overcast
4:15 AM 26.6 °F 15.2 °F 24.8 °F 93% 30.14 in 10.0 mi WNW 13.8 mph 19.6 mph N/A   Overcast
4:35 AM 26.6 °F 15.7 °F 24.8 °F 93% 30.15 in 10.0 mi West 12.7 mph 18.4 mph N/A   Overcast
4:55 AM 26.6 °F 15.2 °F 24.8 °F 93% 30.15 in 10.0 mi WNW 13.8 mph 18.4 mph N/A   Overcast
5:15 AM 26.6 °F 15.7 °F 24.8 °F 93% 30.17 in 10.0 mi West 12.7 mph - N/A   Overcast
5:35 AM 26.6 °F 16.8 °F 24.8 °F 93% 30.17 in 10.0 mi West 10.4 mph - N/A   Overcast
5:55 AM 26.6 °F 18.2 °F 24.8 °F 93% 30.18 in 10.0 mi WNW 8.1 mph - N/A   Overcast
6:15 AM 26.6 °F 18.2 °F 24.8 °F 93% 30.19 in 10.0 mi WNW 8.1 mph - N/A   Overcast
6:35 AM 26.6 °F 16.8 °F 24.8 °F 93% 30.19 in 10.0 mi WNW 10.4 mph - N/A   Overcast
6:55 AM 26.6 °F 19.1 °F 24.8 °F 93% 30.20 in 10.0 mi WNW 6.9 mph - N/A   Overcast
7:15 AM 26.6 °F 16.8 °F 24.8 °F 93% 30.20 in 10.0 mi WNW 10.4 mph - N/A   Overcast
7:35 AM 26.6 °F 16.8 °F 23.0 °F 86% 30.20 in 10.0 mi WNW 10.4 mph 17.3 mph N/A   Mostly Cloudy
7:55 AM 26.6 °F 17.5 °F 23.0 °F 86% 30.21 in 10.0 mi West 9.2 mph - N/A   Overcast
8:15 AM 26.6 °F 17.5 °F 23.0 °F 86% 30.22 in 10.0 mi WNW 9.2 mph 17.3 mph N/A   Overcast
8:35 AM 28.4 °F 17.5 °F 23.0 °F 80% 30.23 in 10.0 mi NW 13.8 mph 23.0 mph N/A   Overcast
8:55 AM 28.4 °F 18.0 °F 23.0 °F 80% 30.23 in 10.0 mi NW 12.7 mph 24.2 mph N/A   Overcast
9:15 AM 28.4 °F 15.8 °F 23.0 °F 80% 30.24 in 10.0 mi NW 18.4 mph 29.9 mph N/A   Mostly Cloudy
9:35 AM 30.2 °F 19.8 °F 24.8 °F 80% 30.25 in 10.0 mi NW 13.8 mph 21.9 mph N/A   Mostly Cloudy
9:55 AM 30.2 °F 18.9 °F 24.8 °F 80% 30.26 in 10.0 mi WNW 16.1 mph 25.3 mph N/A   Mostly Cloudy
10:15 AM 30.2 °F 19.3 °F 24.8 °F 80% 30.26 in 10.0 mi WNW 15.0 mph 26.5 mph N/A   Mostly Cloudy
10:35 AM 30.2 °F 18.9 °F 23.0 °F 75% 30.26 in 10.0 mi NW 16.1 mph 25.3 mph N/A   Mostly Cloudy
10:55 AM 32.0 °F 22.1 °F 24.8 °F 75% 30.27 in 10.0 mi NW 13.8 mph 23.0 mph N/A   Mostly Cloudy
11:15 AM 32.0 °F 22.5 °F 23.0 °F 69% 30.27 in 10.0 mi WNW 12.7 mph 23.0 mph N/A   Scattered Clouds
11:35 AM 32.0 °F 20.5 °F 21.2 °F 64% 30.29 in 10.0 mi WNW 18.4 mph 25.3 mph N/A   Scattered Clouds
11:55 AM 33.8 °F 25.3 °F 24.8 °F 70% 30.29 in 10.0 mi NW 11.5 mph 21.9 mph N/A   Scattered Clouds
12:15 PM 35.6 °F 27.1 °F 23.0 °F 60% 30.29 in 10.0 mi WNW 12.7 mph 20.7 mph N/A   Scattered Clouds
12:35 PM 33.8 °F 24.8 °F 21.2 °F 60% 30.30 in 10.0 mi NW 12.7 mph 24.2 mph N/A   Scattered Clouds
12:55 PM 33.8 °F 23.5 °F 19.4 °F 56% 30.29 in 10.0 mi WNW 16.1 mph 24.2 mph N/A   Scattered Clouds
1:15 PM 35.6 °F 28.0 °F 21.2 °F 56% 30.28 in 10.0 mi WNW 10.4 mph 19.6 mph N/A   Scattered Clouds
1:35 PM 35.6 °F 25.9 °F 21.2 °F 56% 30.27 in 10.0 mi WNW 16.1 mph 21.9 mph N/A   Scattered Clouds
1:55 PM 35.6 °F 28.6 °F 21.2 °F 56% 30.27 in 10.0 mi NW 9.2 mph 18.4 mph N/A   Scattered Clouds
2:15 PM 35.6 °F 28.6 °F 21.2 °F 56% 30.27 in 10.0 mi NW 9.2 mph 17.3 mph N/A   Mostly Cloudy
2:35 PM 33.8 °F 27.0 °F 21.2 °F 60% 30.27 in 10.0 mi NNW 8.1 mph 18.4 mph N/A   Mostly Cloudy
2:55 PM 32.0 °F 22.5 °F 21.2 °F 64% 30.27 in 10.0 mi NW 12.7 mph 17.3 mph N/A   Scattered Clouds
3:15 PM 33.8 °F 25.3 °F 21.2 °F 60% 30.27 in 10.0 mi WNW 11.5 mph - N/A   Scattered Clouds
3:35 PM 33.8 °F 25.8 °F 21.2 °F 60% 30.27 in 10.0 mi West 10.4 mph 16.1 mph N/A   Mostly Cloudy
3:55 PM 35.6 °F 26.6 °F 21.2 °F 56% 30.28 in 10.0 mi NW 13.8 mph 18.4 mph N/A   Mostly Cloudy
4:15 PM 32.0 °F 24.2 °F 21.2 °F 64% 30.28 in 10.0 mi WNW 9.2 mph 21.9 mph N/A   Mostly Cloudy
4:35 PM 30.2 °F 20.8 °F 21.2 °F 69% 30.28 in 10.0 mi NW 11.5 mph 20.7 mph N/A   Scattered Clouds
4:55 PM 30.2 °F 20.8 °F 21.2 °F 69% 30.28 in 10.0 mi NW 11.5 mph 17.3 mph N/A   Scattered Clouds
5:15 PM 30.2 °F 19.8 °F 21.2 °F 69% 30.28 in 10.0 mi NW 13.8 mph 21.9 mph N/A   Mostly Cloudy
5:35 PM 30.2 °F 19.8 °F 21.2 °F 69% 30.28 in 10.0 mi NW 13.8 mph 20.7 mph N/A   Scattered Clouds
5:55 PM 30.2 °F 20.2 °F 21.2 °F 69% 30.28 in 10.0 mi NW 12.7 mph 18.4 mph N/A   Clear
6:15 PM 30.2 °F 22.6 °F 21.2 °F 69% 30.28 in 10.0 mi WNW 8.1 mph - N/A   Clear
6:35 PM 28.4 °F 20.4 °F 21.2 °F 74% 30.28 in 10.0 mi NW 8.1 mph 16.1 mph N/A   Clear
6:55 PM 28.4 °F 19.1 °F 21.2 °F 74% 30.29 in 10.0 mi NW 10.4 mph - N/A   Clear
7:15 PM 28.4 °F 18.5 °F 21.2 °F 74% 30.29 in 10.0 mi WNW 11.5 mph - N/A   Clear
7:35 PM 28.4 °F 20.4 °F 21.2 °F 74% 30.29 in 10.0 mi WNW 8.1 mph - N/A   Clear
7:55 PM 28.4 °F 22.2 °F 21.2 °F 74% 30.29 in 10.0 mi WNW 5.8 mph - N/A   Clear
8:15 PM 28.4 °F 19.7 °F 21.2 °F 74% 30.30 in 10.0 mi WNW 9.2 mph - N/A   Clear
8:35 PM 28.4 °F 21.2 °F 21.2 °F 74% 30.30 in 10.0 mi WNW 6.9 mph - N/A   Clear
8:55 PM 28.4 °F 20.4 °F 21.2 °F 74% 30.30 in 10.0 mi WNW 8.1 mph - N/A   Clear
9:15 PM 28.4 °F 20.4 °F 21.2 °F 74% 30.29 in 10.0 mi WNW 8.1 mph - N/A   Clear
9:35 PM 26.6 °F 17.5 °F 21.2 °F 80% 30.29 in 10.0 mi NW 9.2 mph - N/A   Clear
9:55 PM 26.6 °F 21.2 °F 21.2 °F 80% 30.29 in 10.0 mi WNW 4.6 mph - N/A   Clear
10:15 PM 26.6 °F 18.2 °F 21.2 °F 80% 30.30 in 10.0 mi WNW 8.1 mph - N/A   Clear
10:35 PM 26.6 °F 17.5 °F 21.2 °F 80% 30.30 in 10.0 mi West 9.2 mph - N/A   Clear
10:55 PM 26.6 °F 17.5 °F 21.2 °F 80% 30.30 in 10.0 mi WNW 9.2 mph - N/A   Clear
11:15 PM 26.6 °F 18.2 °F 21.2 °F 80% 30.30 in 10.0 mi West 8.1 mph - N/A   Clear
11:35 PM 26.6 °F 18.2 °F 23.0 °F 86% 30.29 in 10.0 mi WNW 8.1 mph - N/A   Clear
11:55 PM 26.6 °F 18.2 °F 23.0 °F 86% 30.30 in 10.0 mi West 8.1 mph - N/A   Clear